sensor_id;sensor_type;location;lat;lon;timestamp;pressure;altitude;pressure_sealevel;temperature;humidity
8637;BME280;4356;49.068;8.658;2024-01-25T00:01:56;101122.44;;;16.29;43.97
8637;BME280;4356;49.068;8.658;2024-01-25T00:04:21;101125.34;;;16.27;44.25
8637;BME280;4356;49.068;8.658;2024-01-25T00:06:46;101118.41;;;16.25;43.77
8637;BME280;4356;49.068;8.658;2024-01-25T00:09:12;101118.03;;;16.28;44.31
8637;BME280;4356;49.068;8.658;2024-01-25T00:11:37;101112.13;;;16.24;44.23
8637;BME280;4356;49.068;8.658;2024-01-25T00:14:03;101125.50;;;16.26;44.02
8637;BME280;4356;49.068;8.658;2024-01-25T00:16:29;101123.84;;;16.25;44.17
8637;BME280;4356;49.068;8.658;2024-01-25T00:18:54;101126.38;;;16.26;43.98
8637;BME280;4356;49.068;8.658;2024-01-25T00:21:19;101126.56;;;16.25;44.13
8637;BME280;4356;49.068;8.658;2024-01-25T00:23:45;101131.63;;;16.28;44.10
8637;BME280;4356;49.068;8.658;2024-01-25T00:26:10;101132.28;;;16.30;44.11
8637;BME280;4356;49.068;8.658;2024-01-25T00:28:36;101126.19;;;16.28;43.97
8637;BME280;4356;49.068;8.658;2024-01-25T00:31:01;101136.19;;;16.27;44.18
8637;BME280;4356;49.068;8.658;2024-01-25T00:33:27;101132.47;;;16.28;44.09
8637;BME280;4356;49.068;8.658;2024-01-25T00:35:52;101121.28;;;16.23;44.01
8637;BME280;4356;49.068;8.658;2024-01-25T00:38:18;101123.84;;;16.25;44.24
8637;BME280;4356;49.068;8.658;2024-01-25T00:40:44;101114.84;;;16.24;44.24
8637;BME280;4356;49.068;8.658;2024-01-25T00:43:10;101114.53;;;16.19;44.08
8637;BME280;4356;49.068;8.658;2024-01-25T00:45:35;101114.84;;;16.24;44.14
8637;BME280;4356;49.068;8.658;2024-01-25T00:48:01;101115.69;;;16.25;44.27
8637;BME280;4356;49.068;8.658;2024-01-25T00:50:27;101112.13;;;16.24;44.32
8637;BME280;4356;49.068;8.658;2024-01-25T00:52:52;101110.28;;;16.25;43.92
8637;BME280;4356;49.068;8.658;2024-01-25T00:55:18;101120.28;;;16.24;44.10
8637;BME280;4356;49.068;8.658;2024-01-25T00:57:44;101107.72;;;16.23;44.11
8637;BME280;4356;49.068;8.658;2024-01-25T01:00:10;101108.75;;;16.22;44.17
8637;BME280;4356;49.068;8.658;2024-01-25T01:02:39;101105.69;;;16.25;44.10
8637;BME280;4356;49.068;8.658;2024-01-25T01:05:07;101114.19;;;16.22;43.94
8637;BME280;4356;49.068;8.658;2024-01-25T01:07:32;101118.56;;;16.23;44.06
8637;BME280;4356;49.068;8.658;2024-01-25T01:09:58;101106.56;;;16.18;44.12
8637;BME280;4356;49.068;8.658;2024-01-25T01:12:23;101119.78;;;16.21;44.06
8637;BME280;4356;49.068;8.658;2024-01-25T01:14:48;101109.13;;;16.19;44.13
8637;BME280;4356;49.068;8.658;2024-01-25T01:17:14;101108.44;;;16.17;44.08
8637;BME280;4356;49.068;8.658;2024-01-25T01:19:40;101124.53;;;16.19;44.11
8637;BME280;4356;49.068;8.658;2024-01-25T01:22:05;101123.69;;;16.18;44.26
8637;BME280;4356;49.068;8.658;2024-01-25T01:24:31;101119.28;;;16.17;44.07
8637;BME280;4356;49.068;8.658;2024-01-25T01:26:56;101128.09;;;16.19;44.10
8637;BME280;4356;49.068;8.658;2024-01-25T01:29:22;101132.31;;;16.22;44.15
8637;BME280;4356;49.068;8.658;2024-01-25T01:31:47;101133.53;;;16.19;44.01
8637;BME280;4356;49.068;8.658;2024-01-25T01:34:12;101138.78;;;16.21;44.19
8637;BME280;4356;49.068;8.658;2024-01-25T01:36:38;101131.81;;;16.18;44.09
8637;BME280;4356;49.068;8.658;2024-01-25T01:39:04;101126.59;;;16.17;44.19
8637;BME280;4356;49.068;8.658;2024-01-25T01:41:31;101132.84;;;16.17;44.32
8637;BME280;4356;49.068;8.658;2024-01-25T01:43:56;101126.41;;;16.18;44.14
8637;BME280;4356;49.068;8.658;2024-01-25T01:46:34;101121.66;;;16.20;44.09
8637;BME280;4356;49.068;8.658;2024-01-25T01:49:02;101131.63;;;16.20;44.03
8637;BME280;4356;49.068;8.658;2024-01-25T01:51:29;101118.25;;;16.18;44.29
8637;BME280;4356;49.068;8.658;2024-01-25T01:53:56;101110.31;;;16.17;44.06
8637;BME280;4356;49.068;8.658;2024-01-25T01:56:27;101114.88;;;16.16;44.01
8637;BME280;4356;49.068;8.658;2024-01-25T01:58:53;101106.94;;;16.15;43.93
8637;BME280;4356;49.068;8.658;2024-01-25T02:01:20;101123.00;;;16.16;44.19
8637;BME280;4356;49.068;8.658;2024-01-25T02:03:46;101114.88;;;16.16;44.10
8637;BME280;4356;49.068;8.658;2024-01-25T02:06:11;101117.94;;;16.13;44.12
8637;BME280;4356;49.068;8.658;2024-01-25T02:08:37;101115.25;;;16.13;44.02
8637;BME280;4356;49.068;8.658;2024-01-25T02:11:02;101120.66;;;16.13;44.00
8637;BME280;4356;49.068;8.658;2024-01-25T02:13:28;101129.47;;;16.15;43.91
8637;BME280;4356;49.068;8.658;2024-01-25T02:15:53;101121.69;;;16.12;44.17
8637;BME280;4356;49.068;8.658;2024-01-25T02:18:18;101115.59;;;16.10;44.09
8637;BME280;4356;49.068;8.658;2024-01-25T02:20:44;101116.44;;;16.11;44.08
8637;BME280;4356;49.068;8.658;2024-01-25T02:23:09;101119.16;;;16.11;44.04
8637;BME280;4356;49.068;8.658;2024-01-25T02:25:35;101127.13;;;16.12;43.82
8637;BME280;4356;49.068;8.658;2024-01-25T02:28:00;101128.81;;;16.13;43.87
8637;BME280;4356;49.068;8.658;2024-01-25T02:30:25;101132.56;;;16.12;43.76
8637;BME280;4356;49.068;8.658;2024-01-25T02:32:51;101125.25;;;16.13;43.72
8637;BME280;4356;49.068;8.658;2024-01-25T02:35:17;101109.53;;;16.00;43.87
8637;BME280;4356;49.068;8.658;2024-01-25T02:37:43;101117.47;;;16.10;44.07
8637;BME280;4356;49.068;8.658;2024-01-25T02:40:08;101129.84;;;16.12;43.82
8637;BME280;4356;49.068;8.658;2024-01-25T02:42:34;101127.94;;;16.13;43.90
8637;BME280;4356;49.068;8.658;2024-01-25T02:44:59;101135.25;;;16.12;43.93
8637;BME280;4356;49.068;8.658;2024-01-25T02:47:24;101132.69;;;16.11;43.89
8637;BME280;4356;49.068;8.658;2024-01-25T02:49:50;101122.72;;;16.11;43.89
8637;BME280;4356;49.068;8.658;2024-01-25T02:52:15;101133.56;;;16.11;43.76
8637;BME280;4356;49.068;8.658;2024-01-25T02:54:40;101121.19;;;16.09;44.00
8637;BME280;4356;49.068;8.658;2024-01-25T02:57:06;101113.59;;;16.04;43.66
8637;BME280;4356;49.068;8.658;2024-01-25T02:59:31;101108.69;;;16.00;43.52
8637;BME280;4356;49.068;8.658;2024-01-25T03:01:57;101131.88;;;16.10;43.88
8637;BME280;4356;49.068;8.658;2024-01-25T03:04:22;101133.06;;;16.08;43.94
8637;BME280;4356;49.068;8.658;2024-01-25T03:06:48;101124.94;;;16.08;43.75
8637;BME280;4356;49.068;8.658;2024-01-25T03:09:14;101134.09;;;16.07;43.61
8637;BME280;4356;49.068;8.658;2024-01-25T03:11:39;101133.44;;;16.05;44.06
8637;BME280;4356;49.068;8.658;2024-01-25T03:14:05;101133.25;;;16.06;43.82
8637;BME280;4356;49.068;8.658;2024-01-25T03:16:30;101142.25;;;16.07;43.81
8637;BME280;4356;49.068;8.658;2024-01-25T03:18:55;101128.53;;;16.00;43.90
8637;BME280;4356;49.068;8.658;2024-01-25T03:21:21;101140.91;;;16.03;43.72
8637;BME280;4356;49.068;8.658;2024-01-25T03:23:46;101138.34;;;16.01;43.72
8637;BME280;4356;49.068;8.658;2024-01-25T03:26:12;101130.75;;;15.97;43.87
8637;BME280;4356;49.068;8.658;2024-01-25T03:28:37;101148.84;;;16.04;43.63
8637;BME280;4356;49.068;8.658;2024-01-25T03:31:04;101151.38;;;16.06;43.79
8637;BME280;4356;49.068;8.658;2024-01-25T03:33:30;101160.19;;;16.08;43.61
8637;BME280;4356;49.068;8.658;2024-01-25T03:36:01;101161.38;;;16.05;43.76
8637;BME280;4356;49.068;8.658;2024-01-25T03:38:27;101160.69;;;16.03;43.34
8637;BME280;4356;49.068;8.658;2024-01-25T03:40:53;101162.22;;;16.06;43.72
8637;BME280;4356;49.068;8.658;2024-01-25T03:43:19;101165.13;;;16.04;43.85
8637;BME280;4356;49.068;8.658;2024-01-25T03:45:44;101162.75;;;16.01;43.63
8637;BME280;4356;49.068;8.658;2024-01-25T03:48:10;101160.69;;;16.03;43.90
8637;BME280;4356;49.068;8.658;2024-01-25T03:50:35;101161.25;;;15.99;43.46
8637;BME280;4356;49.068;8.658;2024-01-25T03:53:00;101171.91;;;16.00;43.55
8637;BME280;4356;49.068;8.658;2024-01-25T03:55:26;101175.16;;;15.96;43.79
8637;BME280;4356;49.068;8.658;2024-01-25T03:57:51;101182.75;;;16.00;43.68
8637;BME280;4356;49.068;8.658;2024-01-25T04:00:17;101186.50;;;15.99;43.76
8637;BME280;4356;49.068;8.658;2024-01-25T04:02:43;101183.63;;;15.93;43.60
8637;BME280;4356;49.068;8.658;2024-01-25T04:05:09;101190.38;;;15.97;43.41
8637;BME280;4356;49.068;8.658;2024-01-25T04:07:35;101206.16;;;16.01;43.71
8637;BME280;4356;49.068;8.658;2024-01-25T04:10:00;101201.72;;;16.00;43.36
8637;BME280;4356;49.068;8.658;2024-01-25T04:12:26;101193.78;;;15.99;43.69
8637;BME280;4356;49.068;8.658;2024-01-25T04:14:51;101193.94;;;15.97;43.42
8637;BME280;4356;49.068;8.658;2024-01-25T04:17:17;101196.66;;;15.97;43.52
8637;BME280;4356;49.068;8.658;2024-01-25T04:19:42;101195.81;;;15.97;43.81
8637;BME280;4356;49.068;8.658;2024-01-25T04:22:07;101185.16;;;15.95;43.68
8637;BME280;4356;49.068;8.658;2024-01-25T04:24:33;101193.78;;;15.99;43.93
8637;BME280;4356;49.068;8.658;2024-01-25T04:26:58;101195.63;;;15.98;43.65
8637;BME280;4356;49.068;8.658;2024-01-25T04:29:24;101184.97;;;15.97;43.68
8637;BME280;4356;49.068;8.658;2024-01-25T04:31:49;101191.41;;;15.96;43.41
8637;BME280;4356;49.068;8.658;2024-01-25T04:34:15;101185.81;;;15.97;43.69
8637;BME280;4356;49.068;8.658;2024-01-25T04:36:41;101186.16;;;15.94;43.65
8637;BME280;4356;49.068;8.658;2024-01-25T04:39:06;101188.03;;;15.94;43.38
8637;BME280;4356;49.068;8.658;2024-01-25T04:41:32;101194.28;;;15.94;43.56
8637;BME280;4356;49.068;8.658;2024-01-25T04:43:57;101190.06;;;15.92;43.54
8637;BME280;4356;49.068;8.658;2024-01-25T04:46:22;101185.66;;;15.91;43.29
8637;BME280;4356;49.068;8.658;2024-01-25T04:48:48;101191.75;;;15.93;43.40
8637;BME280;4356;49.068;8.658;2024-01-25T04:51:18;101183.31;;;15.88;43.48
8637;BME280;4356;49.068;8.658;2024-01-25T04:53:45;101191.06;;;15.91;43.42
8637;BME280;4356;49.068;8.658;2024-01-25T04:56:10;101211.09;;;15.90;43.42
8637;BME280;4356;49.068;8.658;2024-01-25T04:58:35;101209.41;;;15.89;43.43
8637;BME280;4356;49.068;8.658;2024-01-25T05:01:01;101205.66;;;15.90;43.34
8637;BME280;4356;49.068;8.658;2024-01-25T05:03:26;101176.75;;;15.74;43.42
8637;BME280;4356;49.068;8.658;2024-01-25T05:05:52;101207.69;;;15.88;43.42
8637;BME280;4356;49.068;8.658;2024-01-25T05:08:17;101210.59;;;15.86;43.31
8637;BME280;4356;49.068;8.658;2024-01-25T05:10:43;101208.88;;;15.85;43.36
8637;BME280;4356;49.068;8.658;2024-01-25T05:13:09;101215.84;;;15.88;43.36
8637;BME280;4356;49.068;8.658;2024-01-25T05:15:34;101210.78;;;15.85;43.33
8637;BME280;4356;49.068;8.658;2024-01-25T05:18:00;101223.09;;;15.87;43.41
8637;BME280;4356;49.068;8.658;2024-01-25T05:20:26;101216.50;;;15.82;43.34
8637;BME280;4356;49.068;8.658;2024-01-25T05:22:58;101216.88;;;15.79;43.31
8637;BME280;4356;49.068;8.658;2024-01-25T05:25:24;101218.91;;;15.85;43.34
8637;BME280;4356;49.068;8.658;2024-01-25T05:27:51;101209.09;;;15.76;43.54
8637;BME280;4356;49.068;8.658;2024-01-25T05:30:16;101226.84;;;15.78;43.55
8637;BME280;4356;49.068;8.658;2024-01-25T05:32:42;101231.78;;;15.83;43.28
8637;BME280;4356;49.068;8.658;2024-01-25T05:35:08;101236.53;;;15.81;43.40
8637;BME280;4356;49.068;8.658;2024-01-25T05:37:33;101243.78;;;15.80;43.12
8637;BME280;4356;49.068;8.658;2024-01-25T05:39:59;101232.81;;;15.74;43.11
8637;BME280;4356;49.068;8.658;2024-01-25T05:42:24;101240.25;;;15.80;43.09
8637;BME280;4356;49.068;8.658;2024-01-25T05:44:49;101248.22;;;15.81;43.19
8637;BME280;4356;49.068;8.658;2024-01-25T05:47:16;101245.50;;;15.81;43.36
8637;BME280;4356;49.068;8.658;2024-01-25T05:49:41;101228.88;;;15.76;43.47
8637;BME280;4356;49.068;8.658;2024-01-25T05:52:07;101238.38;;;15.80;43.21
8637;BME280;4356;49.068;8.658;2024-01-25T05:54:32;101232.63;;;15.75;43.22
8637;BME280;4356;49.068;8.658;2024-01-25T05:56:57;101244.16;;;15.77;43.19
8637;BME280;4356;49.068;8.658;2024-01-25T05:59:23;101220.78;;;15.68;43.26
8637;BME280;4356;49.068;8.658;2024-01-25T06:01:48;101240.75;;;15.75;43.39
8637;BME280;4356;49.068;8.658;2024-01-25T06:04:13;101247.88;;;15.76;43.08
8637;BME280;4356;49.068;8.658;2024-01-25T06:06:39;101229.28;;;15.65;43.09
8637;BME280;4356;49.068;8.658;2024-01-25T06:09:04;101253.13;;;15.78;42.91
8637;BME280;4356;49.068;8.658;2024-01-25T06:11:30;101227.38;;;15.66;43.25
8637;BME280;4356;49.068;8.658;2024-01-25T06:13:56;101243.78;;;15.80;43.11
8637;BME280;4356;49.068;8.658;2024-01-25T06:16:22;101241.25;;;15.79;43.29
8637;BME280;4356;49.068;8.658;2024-01-25T06:18:47;101229.59;;;15.70;43.10
8637;BME280;4356;49.068;8.658;2024-01-25T06:21:12;101235.00;;;15.78;43.04
8637;BME280;4356;49.068;8.658;2024-01-25T06:23:38;101236.53;;;15.81;43.19
8637;BME280;4356;49.068;8.658;2024-01-25T06:26:04;101238.38;;;15.80;43.36
8637;BME280;4356;49.068;8.658;2024-01-25T06:28:29;101243.47;;;15.83;43.06
8637;BME280;4356;49.068;8.658;2024-01-25T06:30:55;101238.69;;;15.85;42.91
8637;BME280;4356;49.068;8.658;2024-01-25T06:33:20;101229.91;;;15.83;43.22
8637;BME280;4356;49.068;8.658;2024-01-25T06:35:45;101229.25;;;15.81;43.24
8637;BME280;4356;49.068;8.658;2024-01-25T06:38:12;101232.44;;;15.85;43.26
8637;BME280;4356;49.068;8.658;2024-01-25T06:40:37;101224.16;;;15.86;43.20
8637;BME280;4356;49.068;8.658;2024-01-25T06:43:03;101236.00;;;15.85;43.12
8637;BME280;4356;49.068;8.658;2024-01-25T06:45:29;101240.22;;;15.88;43.08
8637;BME280;4356;49.068;8.658;2024-01-25T06:47:54;101240.22;;;15.88;42.66
8637;BME280;4356;49.068;8.658;2024-01-25T06:50:20;101242.75;;;15.89;42.93
8637;BME280;4356;49.068;8.658;2024-01-25T06:52:45;101245.97;;;15.93;43.08
8637;BME280;4356;49.068;8.658;2024-01-25T06:55:10;101251.56;;;15.91;43.27
8637;BME280;4356;49.068;8.658;2024-01-25T06:57:39;101266.50;;;15.95;43.21
8637;BME280;4356;49.068;8.658;2024-01-25T07:00:05;101266.50;;;15.95;43.09
8637;BME280;4356;49.068;8.658;2024-01-25T07:02:31;101262.91;;;15.95;43.17
8637;BME280;4356;49.068;8.658;2024-01-25T07:04:57;101270.06;;;15.96;43.00
8637;BME280;4356;49.068;8.658;2024-01-25T07:07:22;101269.88;;;15.97;43.04
8637;BME280;4356;49.068;8.658;2024-01-25T07:09:47;101269.53;;;16.00;43.02
8637;BME280;4356;49.068;8.658;2024-01-25T07:12:13;101277.66;;;16.00;43.12
8637;BME280;4356;49.068;8.658;2024-01-25T07:14:38;101283.25;;;15.99;42.95
8637;BME280;4356;49.068;8.658;2024-01-25T07:17:03;101284.78;;;16.01;43.04
8637;BME280;4356;49.068;8.658;2024-01-25T07:19:29;101285.78;;;16.00;42.80
8637;BME280;4356;49.068;8.658;2024-01-25T07:21:54;101282.91;;;16.02;42.98
8637;BME280;4356;49.068;8.658;2024-01-25T07:24:20;101276.78;;;16.00;42.98
8637;BME280;4356;49.068;8.658;2024-01-25T07:26:45;101276.78;;;16.00;42.85
8637;BME280;4356;49.068;8.658;2024-01-25T07:29:11;101289.00;;;16.04;42.87
8637;BME280;4356;49.068;8.658;2024-01-25T07:31:36;101289.34;;;16.01;43.14
8637;BME280;4356;49.068;8.658;2024-01-25T07:34:02;101303.78;;;16.01;43.01
8637;BME280;4356;49.068;8.658;2024-01-25T07:36:27;101306.97;;;16.05;42.94
8637;BME280;4356;49.068;8.658;2024-01-25T07:38:53;101311.56;;;16.04;42.81
8637;BME280;4356;49.068;8.658;2024-01-25T07:41:18;101316.13;;;16.04;42.95
8637;BME280;4356;49.068;8.658;2024-01-25T07:43:44;101319.50;;;16.06;42.92
8637;BME280;4356;49.068;8.658;2024-01-25T07:46:09;101324.44;;;16.10;43.10
8637;BME280;4356;49.068;8.658;2024-01-25T07:48:35;101308.31;;;16.09;42.83
8637;BME280;4356;49.068;8.658;2024-01-25T07:51:01;101311.69;;;16.11;42.78
8637;BME280;4356;49.068;8.658;2024-01-25T07:53:27;101306.28;;;16.11;43.07
8637;BME280;4356;49.068;8.658;2024-01-25T07:55:52;101311.69;;;16.19;43.06
8637;BME280;4356;49.068;8.658;2024-01-25T07:58:17;101316.09;;;16.20;43.01
8637;BME280;4356;49.068;8.658;2024-01-25T08:00:43;101306.44;;;16.17;42.98
8637;BME280;4356;49.068;8.658;2024-01-25T08:03:09;101313.53;;;16.18;42.98
8637;BME280;4356;49.068;8.658;2024-01-25T08:05:35;101312.38;;;16.21;43.21
8637;BME280;4356;49.068;8.658;2024-01-25T08:08:00;101299.13;;;16.18;43.09
8637;BME280;4356;49.068;8.658;2024-01-25T08:10:25;101316.44;;;16.25;42.96
8637;BME280;4356;49.068;8.658;2024-01-25T08:12:51;101300.47;;;16.22;42.98
8637;BME280;4356;49.068;8.658;2024-01-25T08:15:16;101309.78;;;16.27;42.97
8637;BME280;4356;49.068;8.658;2024-01-25T08:17:42;101306.56;;;16.32;42.93
8637;BME280;4356;49.068;8.658;2024-01-25T08:20:08;101301.97;;;16.32;43.23
8637;BME280;4356;49.068;8.658;2024-01-25T08:22:34;101301.81;;;16.34;43.19
8637;BME280;4356;49.068;8.658;2024-01-25T08:25:00;101296.56;;;16.32;43.25
8637;BME280;4356;49.068;8.658;2024-01-25T08:27:25;101289.25;;;16.33;43.23
8637;BME280;4356;49.068;8.658;2024-01-25T08:29:51;101298.56;;;16.38;42.92
8637;BME280;4356;49.068;8.658;2024-01-25T08:32:16;101295.34;;;16.43;43.41
8637;BME280;4356;49.068;8.658;2024-01-25T08:34:41;101286.53;;;16.41;43.16
8637;BME280;4356;49.068;8.658;2024-01-25T08:37:07;101294.00;;;16.47;43.21
8637;BME280;4356;49.068;8.658;2024-01-25T08:39:32;101297.38;;;16.49;43.05
8637;BME280;4356;49.068;8.658;2024-01-25T08:41:58;101291.94;;;16.49;43.23
8637;BME280;4356;49.068;8.658;2024-01-25T08:44:27;101299.59;;;16.54;43.06
8637;BME280;4356;49.068;8.658;2024-01-25T08:46:52;101299.03;;;16.58;43.38
8637;BME280;4356;49.068;8.658;2024-01-25T08:49:17;101289.91;;;16.59;43.04
8637;BME280;4356;49.068;8.658;2024-01-25T08:51:43;101300.38;;;16.62;43.00
8637;BME280;4356;49.068;8.658;2024-01-25T08:54:08;101293.59;;;16.66;43.21
8637;BME280;4356;49.068;8.658;2024-01-25T08:56:34;101289.66;;;16.69;43.11
8637;BME280;4356;49.068;8.658;2024-01-25T08:58:59;101307.59;;;16.78;43.02
8637;BME280;4356;49.068;8.658;2024-01-25T09:01:25;101302.34;;;16.76;42.75
8637;BME280;4356;49.068;8.658;2024-01-25T09:03:50;101310.84;;;16.81;42.91
8637;BME280;4356;49.068;8.658;2024-01-25T09:06:16;101325.53;;;16.87;42.85
8637;BME280;4356;49.068;8.658;2024-01-25T09:08:41;101324.16;;;16.91;42.75
8637;BME280;4356;49.068;8.658;2024-01-25T09:11:07;101324.66;;;16.94;42.74
8637;BME280;4356;49.068;8.658;2024-01-25T09:13:32;101323.28;;;16.98;42.64
8637;BME280;4356;49.068;8.658;2024-01-25T09:15:59;101332.59;;;17.04;42.45
8637;BME280;4356;49.068;8.658;2024-01-25T09:18:24;101317.69;;;17.00;42.87
8637;BME280;4356;49.068;8.658;2024-01-25T09:20:50;101327.47;;;17.09;42.81
8637;BME280;4356;49.068;8.658;2024-01-25T09:23:15;101322.19;;;17.15;42.75
8637;BME280;4356;49.068;8.658;2024-01-25T09:25:44;101327.06;;;17.20;42.66
8637;BME280;4356;49.068;8.658;2024-01-25T09:28:10;101335.03;;;17.21;42.38
8637;BME280;4356;49.068;8.658;2024-01-25T09:30:38;101338.09;;;17.26;42.59
8637;BME280;4356;49.068;8.658;2024-01-25T09:33:05;101347.34;;;17.32;42.41
8637;BME280;4356;49.068;8.658;2024-01-25T09:35:31;101344.50;;;17.33;42.31
8637;BME280;4356;49.068;8.658;2024-01-25T09:37:59;101343.75;;;17.39;42.67
8637;BME280;4356;49.068;8.658;2024-01-25T09:40:24;101337.97;;;17.42;42.48
8637;BME280;4356;49.068;8.658;2024-01-25T09:42:52;101342.19;;;17.45;42.73
8637;BME280;4356;49.068;8.658;2024-01-25T09:45:18;101330.16;;;17.48;42.67
8637;BME280;4356;49.068;8.658;2024-01-25T09:47:44;101342.53;;;17.50;42.60
8637;BME280;4356;49.068;8.658;2024-01-25T09:50:10;101340.31;;;17.54;42.55
8637;BME280;4356;49.068;8.658;2024-01-25T09:52:37;101341.63;;;17.58;42.65
8637;BME280;4356;49.068;8.658;2024-01-25T09:55:06;101346.34;;;17.64;42.63
8637;BME280;4356;49.068;8.658;2024-01-25T09:57:35;101344.47;;;17.64;42.59
8637;BME280;4356;49.068;8.658;2024-01-25T10:00:04;101345.63;;;17.70;42.08
8637;BME280;4356;49.068;8.658;2024-01-25T10:02:30;101349.53;;;17.67;42.51
8637;BME280;4356;49.068;8.658;2024-01-25T10:04:56;101341.56;;;17.66;42.13
8637;BME280;4356;49.068;8.658;2024-01-25T10:07:42;101352.19;;;17.75;42.37
8637;BME280;4356;49.068;8.658;2024-01-25T10:10:08;101354.72;;;17.77;42.10
8637;BME280;4356;49.068;8.658;2024-01-25T10:12:34;101350.31;;;17.76;42.09
8637;BME280;4356;49.068;8.658;2024-01-25T10:15:00;101361.84;;;17.78;42.38
8637;BME280;4356;49.068;8.658;2024-01-25T10:17:27;101358.31;;;17.77;42.28
8637;BME280;4356;49.068;8.658;2024-01-25T10:19:53;101362.13;;;17.83;41.87
8637;BME280;4356;49.068;8.658;2024-01-25T10:22:19;101365.72;;;17.83;41.98
8637;BME280;4356;49.068;8.658;2024-01-25T10:24:44;101354.66;;;17.85;41.98
8637;BME280;4356;49.068;8.658;2024-01-25T10:27:10;101335.22;;;17.73;42.00
8637;BME280;4356;49.068;8.658;2024-01-25T10:29:36;101360.28;;;17.83;42.33
8637;BME280;4356;49.068;8.658;2024-01-25T10:32:06;101351.44;;;17.81;41.93
8637;BME280;4356;49.068;8.658;2024-01-25T10:34:35;101349.09;;;17.78;41.95
8637;BME280;4356;49.068;8.658;2024-01-25T10:37:07;101352.59;;;17.87;41.99
8637;BME280;4356;49.068;8.658;2024-01-25T10:39:33;101361.22;;;17.90;41.94
8637;BME280;4356;49.068;8.658;2024-01-25T10:41:59;101349.06;;;17.86;41.86
8637;BME280;4356;49.068;8.658;2024-01-25T10:44:25;101350.72;;;17.87;42.02
8637;BME280;4356;49.068;8.658;2024-01-25T10:46:51;101354.31;;;17.88;41.69
8637;BME280;4356;49.068;8.658;2024-01-25T10:49:17;101353.44;;;17.87;41.66
8637;BME280;4356;49.068;8.658;2024-01-25T10:51:44;101348.19;;;17.86;42.02
8637;BME280;4356;49.068;8.658;2024-01-25T10:54:11;101336.66;;;17.84;42.03
8637;BME280;4356;49.068;8.658;2024-01-25T10:56:38;101339.47;;;17.90;42.04
8637;BME280;4356;49.068;8.658;2024-01-25T10:59:03;101334.88;;;17.91;42.15
8637;BME280;4356;49.068;8.658;2024-01-25T11:01:29;101333.03;;;17.91;41.70
8637;BME280;4356;49.068;8.658;2024-01-25T11:03:55;101329.63;;;17.89;41.32
8637;BME280;4356;49.068;8.658;2024-01-25T11:06:22;101336.03;;;17.96;41.90
8637;BME280;4356;49.068;8.658;2024-01-25T11:08:48;101333.69;;;17.93;41.68
8637;BME280;4356;49.068;8.658;2024-01-25T11:11:14;101330.97;;;17.93;41.60
8637;BME280;4356;49.068;8.658;2024-01-25T11:13:41;101325.16;;;17.96;41.74
8637;BME280;4356;49.068;8.658;2024-01-25T11:16:27;101327.16;;;18.02;41.34
8637;BME280;4356;49.068;8.658;2024-01-25T11:18:58;101309.50;;;17.98;41.27
8637;BME280;4356;49.068;8.658;2024-01-25T11:21:39;101310.44;;;18.05;41.21
8637;BME280;4356;49.068;8.658;2024-01-25T11:24:11;101311.97;;;18.08;41.02
8637;BME280;4356;49.068;8.658;2024-01-25T11:26:37;101309.72;;;18.11;41.16
8637;BME280;4356;49.068;8.658;2024-01-25T11:29:03;101311.19;;;18.14;41.08
8637;BME280;4356;49.068;8.658;2024-01-25T11:31:29;101313.91;;;18.14;40.89
8637;BME280;4356;49.068;8.658;2024-01-25T11:33:58;101298.44;;;18.14;40.85
8637;BME280;4356;49.068;8.658;2024-01-25T11:36:25;101280.03;;;18.02;41.06
8637;BME280;4356;49.068;8.658;2024-01-25T11:38:51;101287.28;;;18.09;40.74
8637;BME280;4356;49.068;8.658;2024-01-25T11:41:16;101276.75;;;18.06;40.95
8637;BME280;4356;49.068;8.658;2024-01-25T11:43:42;101293.28;;;18.19;40.70
8637;BME280;4356;49.068;8.658;2024-01-25T11:46:08;101288.88;;;18.18;41.00
8637;BME280;4356;49.068;8.658;2024-01-25T11:48:33;101285.78;;;18.21;40.92
8637;BME280;4356;49.068;8.658;2024-01-25T11:50:59;101272.09;;;18.15;41.06
8637;BME280;4356;49.068;8.658;2024-01-25T11:53:25;101277.88;;;18.26;40.74
8637;BME280;4356;49.068;8.658;2024-01-25T11:55:51;101281.75;;;18.32;40.83
8637;BME280;4356;49.068;8.658;2024-01-25T11:58:17;101279.69;;;18.34;40.55
8637;BME280;4356;49.068;8.658;2024-01-25T12:00:43;101272.38;;;18.34;40.27
8637;BME280;4356;49.068;8.658;2024-01-25T12:03:08;101274.34;;;18.40;40.31
8637;BME280;4356;49.068;8.658;2024-01-25T12:05:34;101263.28;;;18.42;40.44
8637;BME280;4356;49.068;8.658;2024-01-25T12:08:00;101259.19;;;18.46;40.42
8637;BME280;4356;49.068;8.658;2024-01-25T12:10:25;101251.63;;;18.48;40.40
8637;BME280;4356;49.068;8.658;2024-01-25T12:12:51;101248.34;;;18.53;40.06
8637;BME280;4356;49.068;8.658;2024-01-25T12:15:16;101242.53;;;18.56;40.03
8637;BME280;4356;49.068;8.658;2024-01-25T12:17:42;101236.06;;;18.57;40.01
8637;BME280;4356;49.068;8.658;2024-01-25T12:20:08;101233.81;;;18.60;39.89
8637;BME280;4356;49.068;8.658;2024-01-25T12:22:38;101217.91;;;18.64;39.94
8637;BME280;4356;49.068;8.658;2024-01-25T12:25:07;101225.34;;;18.70;40.04
8637;BME280;4356;49.068;8.658;2024-01-25T12:27:33;101222.13;;;18.66;40.12
8637;BME280;4356;49.068;8.658;2024-01-25T12:29:58;101226.63;;;18.74;39.62
8637;BME280;4356;49.068;8.658;2024-01-25T12:32:24;101218.91;;;18.77;39.77
8637;BME280;4356;49.068;8.658;2024-01-25T12:34:59;101219.56;;;18.79;39.73
8637;BME280;4356;49.068;8.658;2024-01-25T12:37:28;101209.31;;;18.81;40.00
8637;BME280;4356;49.068;8.658;2024-01-25T12:39:54;101210.44;;;18.87;39.47
8637;BME280;4356;49.068;8.658;2024-01-25T12:42:28;101200.94;;;18.83;39.69
8637;BME280;4356;49.068;8.658;2024-01-25T12:44:54;101194.34;;;18.92;39.82
8637;BME280;4356;49.068;8.658;2024-01-25T12:47:20;101190.59;;;18.93;39.42
8637;BME280;4356;49.068;8.658;2024-01-25T12:49:45;101193.78;;;18.96;39.76
8637;BME280;4356;49.068;8.658;2024-01-25T12:52:12;101197.16;;;18.98;39.68
8637;BME280;4356;49.068;8.658;2024-01-25T12:54:38;101200.13;;;19.03;39.76
8637;BME280;4356;49.068;8.658;2024-01-25T12:57:04;101190.44;;;19.01;39.68
8637;BME280;4356;49.068;8.658;2024-01-25T12:59:31;101181.50;;;19.07;39.50
8637;BME280;4356;49.068;8.658;2024-01-25T13:01:56;101189.28;;;19.10;39.74
8637;BME280;4356;49.068;8.658;2024-01-25T13:04:23;101182.81;;;19.11;39.33